Time;durP1;ratioP1;P1;durP2;ratioP2;P2;SDS_P1;SDS_P2;PMS_P1;PMS_P2;Temp;Humidity;BMP_temperature;BMP_pressure;BME280_temperature;BME280_humidity;BME280_pressure;Samples;Min_cycle;Max_cycle;Signal;HPM_P1;HPM_P2
2024/03/08 00:00:09;;;;;;;15.37;9.63;;;7.20;99.90;;;;;;4997963;28;20528;-70
2024/03/08 00:02:38;;;;;;;13.83;8.93;;;7.10;99.90;;;;;;4978754;28;20468;-73
2024/03/08 00:05:05;;;;;;;15.60;8.90;;;7.10;99.90;;;;;;4981489;28;20461;-73
2024/03/08 00:07:32;;;;;;;15.27;9.33;;;7.10;99.90;;;;;;4978056;28;20510;-72
2024/03/08 00:09:58;;;;;;;18.60;10.03;;;7.10;99.90;;;;;;4978888;28;20465;-73
2024/03/08 00:12:25;;;;;;;18.47;10.43;;;7.10;99.90;;;;;;4987777;28;20482;-73
2024/03/08 00:14:51;;;;;;;16.13;10.33;;;7.10;99.90;;;;;;4975639;28;20237;-73
2024/03/08 00:17:19;;;;;;;17.53;10.23;;;7.00;99.90;;;;;;4978947;28;20478;-73
2024/03/08 00:19:44;;;;;;;21.90;11.23;;;7.00;99.90;;;;;;4976056;28;20218;-73
2024/03/08 00:22:11;;;;;;;18.67;10.90;;;6.90;99.90;;;;;;4960116;28;20462;-73
2024/03/08 00:24:37;;;;;;;12.83;8.43;;;7.00;99.90;;;;;;4956604;28;20696;-71
2024/03/08 00:27:04;;;;;;;17.13;10.07;;;7.00;99.90;;;;;;4977870;28;20545;-72
2024/03/08 00:29:30;;;;;;;14.40;9.50;;;7.00;99.90;;;;;;4990431;28;20320;-74
2024/03/08 00:31:56;;;;;;;16.40;10.07;;;6.90;99.90;;;;;;4980166;28;20548;-72
2024/03/08 00:34:21;;;;;;;19.50;10.87;;;7.00;99.90;;;;;;4978657;28;20241;-73
2024/03/08 00:36:47;;;;;;;20.17;10.90;;;7.00;99.90;;;;;;4958417;28;20221;-72
2024/03/08 00:39:13;;;;;;;26.43;11.27;;;7.00;99.90;;;;;;4978780;28;20291;-71
2024/03/08 00:41:38;;;;;;;17.50;11.00;;;7.10;99.90;;;;;;4976431;28;20472;-72
2024/03/08 00:44:04;;;;;;;17.43;9.80;;;7.00;99.90;;;;;;4989913;28;20237;-72
2024/03/08 00:46:31;;;;;;;18.60;9.87;;;7.00;99.90;;;;;;4976381;28;20250;-71
2024/03/08 00:48:57;;;;;;;21.70;11.77;;;7.00;99.90;;;;;;4978890;28;20241;-73
2024/03/08 00:51:22;;;;;;;19.60;10.50;;;7.00;99.90;;;;;;4980026;28;20835;-73
2024/03/08 00:53:48;;;;;;;19.77;10.80;;;6.90;99.90;;;;;;4974942;28;20222;-73
2024/03/08 00:56:13;;;;;;;15.20;9.50;;;6.90;99.90;;;;;;4980499;28;20214;-73
2024/03/08 00:58:40;;;;;;;17.90;9.80;;;6.90;99.90;;;;;;4978152;28;20214;-73
2024/03/08 01:01:05;;;;;;;15.27;9.23;;;6.90;99.90;;;;;;4980543;28;20214;-73
2024/03/08 01:03:31;;;;;;;19.53;11.10;;;6.90;99.90;;;;;;4979949;28;20476;-73
2024/03/08 01:05:59;;;;;;;18.13;9.50;;;6.80;99.90;;;;;;4978269;28;20277;-73
2024/03/08 01:08:25;;;;;;;17.47;10.77;;;6.70;99.90;;;;;;4981040;28;20475;-73
2024/03/08 01:10:50;;;;;;;18.23;8.97;;;6.70;99.90;;;;;;4977253;28;20453;-73
2024/03/08 01:13:16;;;;;;;16.77;10.00;;;6.70;99.90;;;;;;4965480;28;20229;-72
2024/03/08 01:15:42;;;;;;;17.37;9.87;;;6.70;99.90;;;;;;4961083;28;20214;-73
2024/03/08 01:18:08;;;;;;;16.50;8.90;;;6.70;99.90;;;;;;4980264;28;20215;-73
2024/03/08 01:20:33;;;;;;;19.30;10.53;;;6.70;99.90;;;;;;4977557;28;20214;-73
2024/03/08 01:22:59;;;;;;;18.47;11.27;;;6.70;99.90;;;;;;4978995;28;20236;-73
2024/03/08 01:25:24;;;;;;;14.17;9.20;;;6.70;99.90;;;;;;4979332;28;20230;-73
2024/03/08 01:27:50;;;;;;;18.80;9.47;;;6.60;99.90;;;;;;4976187;28;20779;-73
2024/03/08 01:30:17;;;;;;;16.30;10.07;;;6.70;99.90;;;;;;4962495;28;20293;-72
2024/03/08 01:32:43;;;;;;;17.20;10.30;;;6.70;99.90;;;;;;4975479;28;20229;-73
2024/03/08 01:35:10;;;;;;;19.57;9.80;;;6.60;99.90;;;;;;4982743;28;20461;-72
2024/03/08 01:37:36;;;;;;;14.73;9.70;;;6.60;99.90;;;;;;4975403;28;20465;-73
2024/03/08 01:40:02;;;;;;;17.00;9.60;;;6.60;99.90;;;;;;4980669;28;20465;-70
2024/03/08 01:42:28;;;;;;;18.67;10.30;;;6.60;99.90;;;;;;4980816;28;20267;-72
2024/03/08 01:44:54;;;;;;;22.80;10.83;;;6.60;99.90;;;;;;4979837;28;20520;-71
2024/03/08 01:47:22;;;;;;;16.47;9.23;;;6.60;99.90;;;;;;4980536;28;20484;-72
2024/03/08 01:49:51;;;;;;;18.53;9.07;;;6.60;99.90;;;;;;4977235;28;20227;-72
2024/03/08 01:52:18;;;;;;;18.00;9.90;;;6.60;99.90;;;;;;4991856;28;20467;-72
2024/03/08 01:54:45;;;;;;;16.67;10.23;;;6.60;99.90;;;;;;4990990;28;21053;-73
2024/03/08 01:57:11;;;;;;;16.40;9.77;;;6.60;99.90;;;;;;4963111;28;20577;-72
2024/03/08 01:59:37;;;;;;;13.37;9.63;;;6.50;99.90;;;;;;4972539;28;20974;-72
2024/03/08 02:02:05;;;;;;;23.53;10.13;;;6.50;99.90;;;;;;4978797;28;20933;-73
2024/03/08 02:04:31;;;;;;;16.00;8.70;;;6.50;99.90;;;;;;4974447;28;20516;-72
2024/03/08 02:07:00;;;;;;;16.70;10.30;;;6.50;99.90;;;;;;4982437;28;20473;-70
2024/03/08 02:09:25;;;;;;;19.50;11.17;;;6.50;99.90;;;;;;4983832;28;20571;-73
2024/03/08 02:11:51;;;;;;;17.47;9.30;;;6.40;99.90;;;;;;4976105;28;20536;-72
2024/03/08 02:14:19;;;;;;;19.80;9.33;;;6.40;99.90;;;;;;4991525;28;20234;-73
2024/03/08 02:16:45;;;;;;;15.97;9.90;;;6.40;99.90;;;;;;4960598;28;20449;-73
2024/03/08 02:19:10;;;;;;;16.03;9.60;;;6.40;99.90;;;;;;4983214;28;20198;-72
2024/03/08 02:21:36;;;;;;;22.43;10.60;;;6.40;99.90;;;;;;4977042;28;20589;-72
2024/03/08 02:24:03;;;;;;;17.40;9.43;;;6.40;99.90;;;;;;4980350;28;20223;-73
2024/03/08 02:26:29;;;;;;;19.90;10.57;;;6.40;99.90;;;;;;4981104;28;20491;-72
2024/03/08 02:28:54;;;;;;;15.73;9.63;;;6.30;99.90;;;;;;4984429;28;21020;-72
2024/03/08 02:31:20;;;;;;;14.37;9.60;;;6.30;99.90;;;;;;4966285;28;20791;-72
2024/03/08 02:33:47;;;;;;;16.40;10.40;;;6.30;99.90;;;;;;4979162;28;20226;-73
2024/03/08 02:36:13;;;;;;;16.53;9.00;;;6.20;99.90;;;;;;4982470;28;20210;-72
2024/03/08 02:38:41;;;;;;;19.23;9.90;;;6.20;99.90;;;;;;4964392;28;20538;-71
2024/03/08 02:41:08;;;;;;;21.20;10.40;;;6.20;99.90;;;;;;4985966;28;20460;-72
2024/03/08 02:43:34;;;;;;;16.07;9.70;;;6.20;99.90;;;;;;4978486;28;20466;-72
2024/03/08 02:46:00;;;;;;;13.77;8.77;;;6.20;99.90;;;;;;4985629;28;20457;-72
2024/03/08 02:48:25;;;;;;;18.80;9.23;;;6.20;99.90;;;;;;4983647;28;20226;-72
2024/03/08 02:50:51;;;;;;;16.30;9.67;;;6.10;99.90;;;;;;4979963;28;20226;-72
2024/03/08 02:53:18;;;;;;;12.73;8.50;;;6.10;99.90;;;;;;4968416;28;20707;-72
2024/03/08 02:55:44;;;;;;;19.73;10.07;;;6.00;99.90;;;;;;4992974;28;20280;-72
2024/03/08 02:58:10;;;;;;;19.13;9.20;;;6.00;99.90;;;;;;4984006;28;20775;-72
2024/03/08 03:00:37;;;;;;;16.53;8.77;;;6.00;99.90;;;;;;4977948;28;20218;-72
2024/03/08 03:03:03;;;;;;;18.00;10.47;;;5.90;99.90;;;;;;4985481;28;20226;-72
2024/03/08 03:05:29;;;;;;;22.07;11.63;;;5.90;99.90;;;;;;4986790;28;20520;-71
2024/03/08 03:07:55;;;;;;;14.87;7.93;;;5.90;99.90;;;;;;4968264;28;20592;-72
2024/03/08 03:10:21;;;;;;;17.63;9.87;;;5.90;99.90;;;;;;4988046;28;20536;-71
2024/03/08 03:12:50;;;;;;;18.63;10.23;;;5.90;99.90;;;;;;4987391;28;20462;-72
2024/03/08 03:15:17;;;;;;;18.63;9.23;;;5.90;99.90;;;;;;4984595;28;20473;-72
2024/03/08 03:17:52;;;;;;;19.80;11.90;;;5.80;99.90;;;;;;5003395;28;20492;-72
2024/03/08 03:20:32;;;;;;;13.73;9.00;;;5.80;99.90;;;;;;4988559;28;20547;-72
2024/03/08 03:23:00;;;;;;;18.20;9.83;;;5.80;99.90;;;;;;4986059;28;20856;-72
2024/03/08 03:25:33;;;;;;;14.57;9.67;;;5.80;99.90;;;;;;4987732;28;20597;-72
2024/03/08 03:27:59;;;;;;;21.10;10.87;;;5.80;99.90;;;;;;4984533;28;20544;-72
2024/03/08 03:30:32;;;;;;;15.13;8.80;;;5.70;99.90;;;;;;4971862;28;20822;-73
2024/03/08 03:33:06;;;;;;;17.43;10.07;;;5.70;99.90;;;;;;4987438;28;20600;-73
2024/03/08 03:35:32;;;;;;;17.40;9.20;;;5.70;99.90;;;;;;4981523;28;20457;-72
2024/03/08 03:38:02;;;;;;;15.67;10.43;;;5.60;99.90;;;;;;4989525;28;20538;-72
2024/03/08 03:40:31;;;;;;;14.80;9.60;;;5.60;99.90;;;;;;4984605;28;20531;-72
2024/03/08 03:42:57;;;;;;;14.83;9.27;;;5.60;99.90;;;;;;4986591;28;20462;-72
2024/03/08 03:45:23;;;;;;;18.50;9.80;;;5.60;99.90;;;;;;4970727;28;20464;-71
2024/03/08 03:47:49;;;;;;;19.10;9.00;;;5.50;99.90;;;;;;4991318;28;20241;-72
2024/03/08 03:50:15;;;;;;;13.83;8.70;;;5.50;99.90;;;;;;4983921;28;20449;-72
2024/03/08 03:52:42;;;;;;;18.60;9.33;;;5.50;99.90;;;;;;4989569;28;20456;-73
2024/03/08 03:55:08;;;;;;;17.40;8.40;;;5.50;99.90;;;;;;4973501;28;20366;-72
2024/03/08 03:57:33;;;;;;;16.10;10.00;;;5.50;99.90;;;;;;4970051;28;20474;-73
2024/03/08 03:59:59;;;;;;;13.40;8.03;;;5.50;99.90;;;;;;4984198;28;20456;-72
2024/03/08 04:02:26;;;;;;;20.07;9.83;;;5.40;99.90;;;;;;5003143;28;20320;-72
2024/03/08 04:04:54;;;;;;;15.03;8.50;;;5.40;99.90;;;;;;4987625;28;20275;-72
2024/03/08 04:07:20;;;;;;;22.03;10.40;;;5.40;99.90;;;;;;4985476;28;20548;-72
2024/03/08 04:09:46;;;;;;;14.60;9.33;;;5.30;99.90;;;;;;4987700;28;20473;-73
2024/03/08 04:12:12;;;;;;;13.60;8.97;;;5.30;99.90;;;;;;4988392;28;20458;-72
2024/03/08 04:14:41;;;;;;;16.27;9.50;;;5.30;99.90;;;;;;4966443;28;20257;-72
2024/03/08 04:17:08;;;;;;;13.33;8.80;;;5.30;99.90;;;;;;5002980;28;20230;-72
2024/03/08 04:19:34;;;;;;;17.10;10.00;;;5.30;99.90;;;;;;4983659;28;20460;-73
2024/03/08 04:22:01;;;;;;;18.57;9.30;;;5.20;99.90;;;;;;4976688;28;20457;-72
2024/03/08 04:24:26;;;;;;;19.70;9.90;;;5.20;99.90;;;;;;4985862;28;20493;-72
2024/03/08 04:26:53;;;;;;;13.70;8.53;;;5.20;99.90;;;;;;4984564;28;21123;-72
2024/03/08 04:29:19;;;;;;;17.70;9.80;;;5.20;99.90;;;;;;5002636;28;20536;-72
2024/03/08 04:31:44;;;;;;;13.43;8.60;;;5.20;99.90;;;;;;4986669;28;20466;-72
2024/03/08 04:34:11;;;;;;;23.33;11.33;;;5.20;99.90;;;;;;4989967;28;20459;-71
2024/03/08 04:36:36;;;;;;;19.37;8.83;;;5.10;99.90;;;;;;5001085;28;20214;-72
2024/03/08 04:39:02;;;;;;;18.13;10.60;;;5.10;99.90;;;;;;4985182;28;20442;-70
2024/03/08 04:41:30;;;;;;;18.83;9.53;;;5.00;99.90;;;;;;4983670;28;20214;-72
2024/03/08 04:43:57;;;;;;;22.10;9.40;;;5.00;99.90;;;;;;4959014;28;20477;-70
2024/03/08 04:46:23;;;;;;;17.70;9.23;;;5.00;99.90;;;;;;4977983;28;20581;-72
2024/03/08 04:48:49;;;;;;;16.47;9.77;;;5.00;99.90;;;;;;4973252;28;20474;-72
2024/03/08 04:51:15;;;;;;;19.03;9.10;;;5.00;99.90;;;;;;4977999;28;20484;-73
2024/03/08 04:53:41;;;;;;;15.97;9.27;;;5.10;99.90;;;;;;4974441;28;20230;-72
2024/03/08 04:56:07;;;;;;;18.37;11.47;;;5.00;99.90;;;;;;4978440;28;20481;-71
2024/03/08 04:58:35;;;;;;;21.17;10.90;;;5.00;99.90;;;;;;4973918;28;20469;-71
2024/03/08 05:01:02;;;;;;;20.53;10.57;;;5.00;99.90;;;;;;4991111;28;20222;-72
2024/03/08 05:03:28;;;;;;;15.97;8.53;;;5.00;99.90;;;;;;4978901;28;20464;-71
2024/03/08 05:05:54;;;;;;;14.33;8.07;;;5.00;99.90;;;;;;4976695;28;20450;-71
2024/03/08 05:08:19;;;;;;;17.63;9.63;;;5.00;99.90;;;;;;4978921;28;20477;-71
2024/03/08 05:10:46;;;;;;;18.30;9.70;;;5.00;99.90;;;;;;4974979;28;20222;-72
2024/03/08 05:13:12;;;;;;;15.90;9.93;;;4.90;99.90;;;;;;4981850;28;20218;-70
2024/03/08 05:15:39;;;;;;;16.40;8.93;;;4.90;99.90;;;;;;4976741;28;20986;-71
2024/03/08 05:18:05;;;;;;;18.73;10.10;;;4.90;99.90;;;;;;4978181;28;20548;-71
2024/03/08 05:20:31;;;;;;;19.07;10.47;;;4.90;99.90;;;;;;4957551;28;21022;-71
2024/03/08 05:23:00;;;;;;;18.33;8.87;;;4.90;99.90;;;;;;4963399;28;20458;-72
2024/03/08 05:25:26;;;;;;;17.30;9.23;;;4.90;99.90;;;;;;4982325;28;20318;-71
2024/03/08 05:27:52;;;;;;;16.93;8.93;;;4.90;99.90;;;;;;4975937;28;20464;-71
2024/03/08 05:30:18;;;;;;;20.30;9.87;;;4.80;99.90;;;;;;4975544;28;20468;-72
2024/03/08 05:32:47;;;;;;;16.40;9.77;;;4.80;99.90;;;;;;4972794;28;20480;-72
2024/03/08 05:35:12;;;;;;;16.70;9.13;;;4.70;99.90;;;;;;4983591;28;20505;-72
2024/03/08 05:37:39;;;;;;;18.37;10.60;;;4.70;99.90;;;;;;4959926;28;20497;-72
2024/03/08 05:40:09;;;;;;;16.90;9.70;;;4.70;99.90;;;;;;4981034;28;20280;-69
2024/03/08 05:42:36;;;;;;;18.20;9.60;;;4.70;99.90;;;;;;4975191;28;20469;-72
2024/03/08 05:45:06;;;;;;;15.73;9.77;;;4.70;99.90;;;;;;4982720;28;20903;-73
2024/03/08 05:47:32;;;;;;;18.63;11.03;;;4.70;99.90;;;;;;4976900;28;20470;-71
2024/03/08 05:49:59;;;;;;;18.60;10.03;;;4.70;99.90;;;;;;4976495;28;20476;-71
2024/03/08 05:52:25;;;;;;;22.40;10.97;;;4.60;99.90;;;;;;4983060;28;20468;-71
2024/03/08 05:54:51;;;;;;;17.87;9.67;;;4.60;99.90;;;;;;4975822;28;20467;-72
2024/03/08 05:57:17;;;;;;;17.20;9.53;;;4.60;99.90;;;;;;4966329;28;20476;-72
2024/03/08 05:59:43;;;;;;;20.33;12.00;;;4.60;99.90;;;;;;4965174;28;20544;-70
2024/03/08 06:02:09;;;;;;;18.47;9.87;;;4.60;99.90;;;;;;4983532;28;20230;-71
2024/03/08 06:04:34;;;;;;;17.67;10.80;;;4.60;99.90;;;;;;4977472;28;20226;-72
2024/03/08 06:07:03;;;;;;;18.70;10.70;;;4.60;99.90;;;;;;4981936;28;20265;-71
2024/03/08 06:09:29;;;;;;;20.43;9.60;;;4.60;99.90;;;;;;4986040;28;20223;-72
2024/03/08 06:11:54;;;;;;;15.77;9.33;;;4.60;99.90;;;;;;4991147;28;20465;-72
2024/03/08 06:14:20;;;;;;;21.40;9.33;;;4.50;99.90;;;;;;4981259;28;20480;-71
2024/03/08 06:16:47;;;;;;;21.43;9.87;;;4.50;99.90;;;;;;4961963;28;20218;-69
2024/03/08 06:19:13;;;;;;;18.00;9.40;;;4.50;99.90;;;;;;4977267;28;20490;-72
2024/03/08 06:21:39;;;;;;;19.10;9.33;;;4.50;99.90;;;;;;4961728;28;20596;-72
2024/03/08 06:24:05;;;;;;;17.40;10.00;;;4.40;99.90;;;;;;4965764;28;20558;-72
2024/03/08 06:26:30;;;;;;;17.73;10.50;;;4.40;99.90;;;;;;4985723;28;20561;-72
2024/03/08 06:28:57;;;;;;;20.53;9.93;;;4.40;99.90;;;;;;4987094;28;20507;-72
2024/03/08 06:31:23;;;;;;;18.80;9.80;;;4.30;99.90;;;;;;4974358;28;20218;-72
2024/03/08 06:33:49;;;;;;;18.87;9.80;;;4.30;99.90;;;;;;4990512;28;20838;-72
2024/03/08 06:36:18;;;;;;;17.33;8.97;;;4.30;99.90;;;;;;4989945;28;20453;-72
2024/03/08 06:38:46;;;;;;;18.63;9.30;;;4.30;99.90;;;;;;4994919;28;20465;-71
2024/03/08 06:41:17;;;;;;;22.87;9.63;;;4.40;99.90;;;;;;4973409;28;20463;-71
2024/03/08 06:43:44;;;;;;;17.13;9.80;;;4.30;99.90;;;;;;4988085;28;21033;-72
2024/03/08 06:46:12;;;;;;;18.23;10.90;;;4.30;99.90;;;;;;4993052;28;20444;-72
2024/03/08 06:48:38;;;;;;;19.83;11.73;;;4.30;99.90;;;;;;4985570;28;20475;-72
2024/03/08 06:51:05;;;;;;;19.33;11.37;;;4.20;99.90;;;;;;4976214;28;20466;-72
2024/03/08 06:53:31;;;;;;;17.57;10.37;;;4.20;99.90;;;;;;4987923;28;20489;-70
2024/03/08 06:55:57;;;;;;;22.57;10.20;;;4.10;99.90;;;;;;4991875;28;20465;-72
2024/03/08 06:58:23;;;;;;;21.00;10.67;;;4.20;99.90;;;;;;4972148;28;20461;-72
2024/03/08 07:00:52;;;;;;;19.50;9.30;;;4.20;99.90;;;;;;4983948;28;20496;-70
2024/03/08 07:03:18;;;;;;;21.43;10.17;;;4.30;99.90;;;;;;4971600;28;20225;-72
2024/03/08 07:05:44;;;;;;;21.30;11.10;;;4.20;99.90;;;;;;4973589;28;20556;-72
2024/03/08 07:08:09;;;;;;;22.40;10.33;;;4.30;99.90;;;;;;4991325;28;20548;-72
2024/03/08 07:10:36;;;;;;;22.87;9.40;;;4.30;99.90;;;;;;4985530;28;20317;-72
2024/03/08 07:13:03;;;;;;;19.70;10.97;;;4.30;99.90;;;;;;4983761;28;20225;-72
2024/03/08 07:15:28;;;;;;;24.30;10.83;;;4.20;99.90;;;;;;4988129;28;20457;-72
2024/03/08 07:17:54;;;;;;;17.93;10.13;;;4.30;99.90;;;;;;4988160;28;20826;-72
2024/03/08 07:20:21;;;;;;;20.70;10.77;;;4.30;99.90;;;;;;4991217;28;20229;-72
2024/03/08 07:22:48;;;;;;;17.83;10.20;;;4.30;99.90;;;;;;4994619;28;20696;-72
2024/03/08 07:25:29;;;;;;;19.00;11.33;;;4.20;99.90;;;;;;4977153;28;20496;-71
2024/03/08 07:27:55;;;;;;;16.00;9.47;;;4.20;99.90;;;;;;4977047;28;20475;-72
2024/03/08 07:33:11;;;;;;;20.90;10.40;;;4.30;99.90;;;;;;4980438;28;20461;-71
2024/03/08 07:35:37;;;;;;;18.80;10.33;;;4.40;99.90;;;;;;4976228;28;20466;-72
2024/03/08 07:38:08;;;;;;;20.40;10.70;;;4.40;99.90;;;;;;4983481;28;20467;-71
2024/03/08 07:40:40;;;;;;;21.03;11.60;;;4.50;99.90;;;;;;4975238;28;21111;-71
2024/03/08 07:43:10;;;;;;;17.60;10.30;;;4.50;99.90;;;;;;4981441;28;20886;-72
2024/03/08 07:45:39;;;;;;;21.60;10.50;;;4.60;99.90;;;;;;4976382;28;20474;-72
2024/03/08 07:48:09;;;;;;;19.90;11.40;;;4.60;99.90;;;;;;4980773;28;20472;-72
2024/03/08 07:50:41;;;;;;;20.77;11.00;;;4.60;99.90;;;;;;4990717;28;20454;-72
2024/03/08 07:53:07;;;;;;;26.33;12.27;;;4.60;99.90;;;;;;4977879;28;20457;-72
2024/03/08 07:55:35;;;;;;;20.10;10.50;;;4.70;99.90;;;;;;4978944;28;20470;-71
2024/03/08 07:58:01;;;;;;;22.07;11.20;;;4.60;99.90;;;;;;4983631;28;20846;-69
2024/03/08 08:00:27;;;;;;;21.07;11.60;;;4.70;99.90;;;;;;4969438;28;20459;-71
2024/03/08 08:02:54;;;;;;;22.70;10.90;;;4.60;99.90;;;;;;4975910;28;20465;-72
2024/03/08 08:05:19;;;;;;;21.30;10.40;;;4.80;99.90;;;;;;4981297;28;20477;-72
2024/03/08 08:07:46;;;;;;;21.90;10.60;;;5.00;99.90;;;;;;4978055;28;20477;-72
2024/03/08 08:10:21;;;;;;;27.70;11.33;;;5.10;99.90;;;;;;4959577;28;20222;-72
2024/03/08 08:12:48;;;;;;;23.90;10.07;;;4.90;99.90;;;;;;4977966;28;20458;-72
2024/03/08 08:15:14;;;;;;;20.53;10.47;;;5.00;99.90;;;;;;4976640;28;21018;-72
2024/03/08 08:17:42;;;;;;;22.60;11.23;;;5.00;99.90;;;;;;4976423;28;20465;-73
2024/03/08 08:20:09;;;;;;;18.00;10.77;;;5.00;99.90;;;;;;4982213;28;20560;-71
2024/03/08 08:22:34;;;;;;;21.80;11.70;;;4.90;99.90;;;;;;4961273;28;20482;-71
2024/03/08 08:25:01;;;;;;;22.00;11.77;;;4.90;99.90;;;;;;4960409;28;21053;-72
2024/03/08 08:27:27;;;;;;;18.93;10.23;;;5.00;99.90;;;;;;4965302;28;20226;-72
2024/03/08 08:29:53;;;;;;;18.33;10.20;;;5.10;99.90;;;;;;4979888;28;20460;-71
2024/03/08 08:32:18;;;;;;;19.50;10.70;;;5.30;99.90;;;;;;4963672;28;20374;-73
2024/03/08 08:34:44;;;;;;;25.90;11.37;;;5.30;99.90;;;;;;4961942;28;20317;-72
2024/03/08 08:37:10;;;;;;;19.07;11.40;;;5.40;99.90;;;;;;4982035;28;20223;-72
2024/03/08 08:39:37;;;;;;;16.43;10.67;;;5.40;99.90;;;;;;4975881;28;20226;-73
2024/03/08 08:42:03;;;;;;;21.53;11.13;;;5.40;99.90;;;;;;4981432;28;20307;-72
2024/03/08 08:44:31;;;;;;;19.73;10.80;;;5.60;99.90;;;;;;4982952;28;20477;-72
2024/03/08 08:46:57;;;;;;;24.73;10.63;;;5.70;99.90;;;;;;4982062;28;20691;-72
2024/03/08 08:49:23;;;;;;;19.30;11.40;;;5.60;99.90;;;;;;4973456;28;20473;-72
2024/03/08 08:51:50;;;;;;;18.20;10.53;;;5.60;99.90;;;;;;4978799;28;20461;-73
2024/03/08 08:54:16;;;;;;;19.33;10.40;;;5.70;99.90;;;;;;4981530;28;20460;-72
2024/03/08 08:56:47;;;;;;;18.10;10.40;;;5.80;99.90;;;;;;4974805;28;20473;-73
2024/03/08 08:59:13;;;;;;;20.47;10.50;;;5.90;99.90;;;;;;4982577;28;20454;-72
2024/03/08 09:01:53;;;;;;;23.77;11.47;;;6.10;99.90;;;;;;4955264;28;20537;-71
2024/03/08 09:04:19;;;;;;;16.47;9.47;;;6.00;99.90;;;;;;4977534;28;20463;-71
2024/03/08 09:06:45;;;;;;;19.07;10.60;;;5.90;99.90;;;;;;4977125;28;20560;-72
2024/03/08 09:09:13;;;;;;;20.90;10.27;;;5.90;99.90;;;;;;4981662;28;20215;-71
2024/03/08 09:16:48;;;;;;;19.93;10.60;;;5.90;99.90;;;;;;4956504;28;20553;-72
2024/03/08 09:19:14;;;;;;;19.10;10.77;;;5.90;99.90;;;;;;4963370;28;20549;-71
2024/03/08 09:21:40;;;;;;;19.13;10.90;;;5.80;99.90;;;;;;4954858;28;20277;-71
2024/03/08 09:24:06;;;;;;;20.37;10.73;;;5.80;99.90;;;;;;4959815;28;20524;-72
2024/03/08 09:26:33;;;;;;;16.30;10.00;;;5.80;99.90;;;;;;4957145;28;20490;-72
2024/03/08 09:28:59;;;;;;;22.03;11.00;;;5.80;99.90;;;;;;4959060;28;20277;-72
2024/03/08 09:31:25;;;;;;;18.93;11.13;;;5.90;99.90;;;;;;4945837;28;20546;-72
2024/03/08 09:33:51;;;;;;;23.00;12.67;;;6.10;99.90;;;;;;4954351;28;20454;-72
2024/03/08 09:36:17;;;;;;;17.23;9.97;;;6.20;99.90;;;;;;4959150;28;20462;-72
2024/03/08 09:38:44;;;;;;;21.10;10.97;;;6.20;99.90;;;;;;4971243;28;20505;-72
2024/03/08 09:41:10;;;;;;;18.33;10.40;;;6.10;99.90;;;;;;4961850;28;20210;-72
2024/03/08 09:43:36;;;;;;;21.50;10.87;;;6.20;99.90;;;;;;4964731;28;20481;-72
2024/03/08 09:46:04;;;;;;;18.50;10.33;;;6.20;99.90;;;;;;4965367;28;20451;-73
2024/03/08 09:48:29;;;;;;;17.63;11.10;;;6.50;99.90;;;;;;4962863;28;20471;-73
2024/03/08 09:50:56;;;;;;;25.10;10.90;;;6.60;99.90;;;;;;4953340;28;20457;-73
2024/03/08 09:53:22;;;;;;;21.27;10.20;;;6.80;99.90;;;;;;4959924;28;20221;-72
2024/03/08 09:55:49;;;;;;;21.10;10.00;;;6.70;99.90;;;;;;4938338;28;20462;-71
2024/03/08 09:58:25;;;;;;;18.17;9.90;;;6.50;99.90;;;;;;4956039;28;20490;-72
2024/03/08 10:00:51;;;;;;;16.73;10.60;;;6.70;99.90;;;;;;4948890;28;20462;-72
2024/03/08 10:03:17;;;;;;;21.13;10.57;;;6.70;99.90;;;;;;4955267;28;20477;-71
2024/03/08 10:05:44;;;;;;;19.13;11.60;;;6.80;99.90;;;;;;4959447;28;20223;-72
2024/03/08 10:08:10;;;;;;;18.57;11.00;;;6.90;99.90;;;;;;4958312;28;20226;-72
2024/03/08 10:10:37;;;;;;;18.10;10.77;;;7.10;99.90;;;;;;4957795;28;20478;-71
2024/03/08 10:13:06;;;;;;;19.93;10.87;;;7.30;99.90;;;;;;4958901;28;20500;-72
2024/03/08 10:15:35;;;;;;;22.13;11.00;;;6.90;99.90;;;;;;4957129;28;20470;-71
2024/03/08 10:18:03;;;;;;;17.70;11.00;;;7.00;99.90;;;;;;4956929;28;20536;-73
2024/03/08 10:20:33;;;;;;;20.73;10.93;;;7.20;99.90;;;;;;4960474;28;20474;-71
2024/03/08 10:22:59;;;;;;;16.47;10.53;;;7.10;99.90;;;;;;4954740;28;20604;-73
2024/03/08 10:25:25;;;;;;;17.97;10.43;;;7.20;99.90;;;;;;4959932;28;20468;-73
2024/03/08 10:27:51;;;;;;;17.50;10.70;;;7.50;99.90;;;;;;4961896;28;20475;-74
2024/03/08 10:30:21;;;;;;;21.53;11.67;;;7.60;99.90;;;;;;4961254;28;20230;-72
2024/03/08 10:32:47;;;;;;;23.87;12.30;;;7.40;99.90;;;;;;4962967;28;20795;-74
2024/03/08 10:35:13;;;;;;;18.20;11.07;;;7.40;99.90;;;;;;4960304;28;20501;-73
2024/03/08 10:37:58;;;;;;;21.40;11.20;;;7.50;99.90;;;;;;4957983;28;20509;-73
2024/03/08 10:40:25;;;;;;;15.53;10.27;;;7.50;99.90;;;;;;4965291;28;20222;-73
2024/03/08 10:42:54;;;;;;;22.43;10.30;;;7.50;99.90;;;;;;4953290;28;20458;-73
2024/03/08 10:45:35;;;;;;;20.40;10.13;;;7.70;99.90;;;;;;4962694;28;21002;-72
2024/03/08 10:48:24;;;;;;;16.33;10.23;;;8.20;99.90;;;;;;4959608;28;20488;-73
2024/03/08 10:50:52;;;;;;;17.50;10.30;;;8.60;99.90;;;;;;4956905;28;20549;-71
2024/03/08 10:53:21;;;;;;;15.90;10.87;;;8.50;99.90;;;;;;4963187;28;20469;-73
2024/03/08 10:55:49;;;;;;;18.57;10.70;;;8.70;99.90;;;;;;4955292;28;20544;-74
2024/03/08 10:58:16;;;;;;;13.97;9.50;;;9.00;99.90;;;;;;4965501;28;20846;-73
2024/03/08 11:00:42;;;;;;;17.20;9.90;;;9.20;99.90;;;;;;4959396;28;20466;-72
2024/03/08 11:03:40;;;;;;;16.80;10.30;;;9.20;99.90;;;;;;4949636;28;20469;-73
2024/03/08 11:06:15;;;;;;;18.70;10.87;;;9.10;99.90;;;;;;4947869;28;20230;-73
2024/03/08 11:08:41;;;;;;;16.50;10.07;;;8.90;99.90;;;;;;4958543;28;20473;-73
2024/03/08 11:11:27;;;;;;;15.67;9.90;;;9.00;99.90;;;;;;4961197;28;21010;-73
2024/03/08 11:13:53;;;;;;;22.87;10.63;;;9.30;99.90;;;;;;4964169;28;20780;-74
2024/03/08 11:16:24;;;;;;;16.13;9.53;;;9.20;99.90;;;;;;4961206;28;20474;-74
2024/03/08 11:18:53;;;;;;;14.07;8.70;;;9.40;99.90;;;;;;4957966;28;20490;-73
2024/03/08 11:21:19;;;;;;;18.57;9.30;;;9.60;99.90;;;;;;4962680;28;20549;-74
2024/03/08 11:23:59;;;;;;;17.60;10.17;;;9.60;99.90;;;;;;4957872;28;20628;-73
2024/03/08 11:26:25;;;;;;;13.90;8.80;;;9.70;99.90;;;;;;4962152;28;20611;-74
2024/03/08 11:28:55;;;;;;;17.90;9.77;;;10.00;99.90;;;;;;4955974;28;20455;-74
2024/03/08 11:31:21;;;;;;;15.70;10.17;;;10.10;99.90;;;;;;4963826;28;20242;-73
2024/03/08 11:33:48;;;;;;;15.90;10.27;;;10.10;99.90;;;;;;4958277;28;20489;-73
2024/03/08 11:36:22;;;;;;;14.67;9.87;;;9.90;99.90;;;;;;4961264;28;20274;-73
2024/03/08 11:38:49;;;;;;;15.77;10.97;;;10.00;99.90;;;;;;4958013;28;20446;-74
2024/03/08 11:41:17;;;;;;;16.00;10.13;;;10.20;99.90;;;;;;4959744;28;20450;-74
2024/03/08 11:43:44;;;;;;;15.30;10.20;;;10.10;99.90;;;;;;4957062;28;20508;-73
2024/03/08 11:46:14;;;;;;;18.43;10.97;;;9.90;99.90;;;;;;4961444;28;20465;-73
2024/03/08 11:48:44;;;;;;;16.27;11.67;;;9.80;99.90;;;;;;4969075;28;20942;-74
2024/03/08 11:51:14;;;;;;;16.47;10.50;;;9.80;99.90;;;;;;4975880;28;20461;-74
2024/03/08 11:53:40;;;;;;;20.27;10.00;;;9.30;99.90;;;;;;4954826;28;20477;-73
2024/03/08 11:56:11;;;;;;;14.60;9.50;;;9.40;99.90;;;;;;4943881;28;20458;-74
2024/03/08 11:58:37;;;;;;;15.73;10.10;;;9.60;99.90;;;;;;4959031;28;20474;-74
2024/03/08 12:01:07;;;;;;;19.83;10.63;;;9.60;99.90;;;;;;4943825;28;21265;-74
2024/03/08 12:03:38;;;;;;;19.23;10.37;;;9.30;99.90;;;;;;4961713;28;20532;-72
2024/03/08 12:06:04;;;;;;;15.30;10.40;;;9.60;99.90;;;;;;4958924;28;20473;-73
2024/03/08 12:08:32;;;;;;;16.10;9.53;;;10.10;99.90;;;;;;4958484;28;20481;-74
2024/03/08 12:11:01;;;;;;;18.00;10.20;;;10.30;99.90;;;;;;4946783;28;20830;-74
2024/03/08 12:13:35;;;;;;;16.93;10.07;;;10.30;99.90;;;;;;4961197;28;20467;-73
2024/03/08 12:16:05;;;;;;;16.53;10.20;;;10.40;99.90;;;;;;4947270;28;20449;-74
2024/03/08 12:18:34;;;;;;;17.23;9.47;;;10.40;99.90;;;;;;4967329;28;20532;-74
2024/03/08 12:21:08;;;;;;;17.30;10.13;;;10.40;99.90;;;;;;4968164;28;20457;-73
2024/03/08 12:23:39;;;;;;;14.10;9.27;;;10.50;99.90;;;;;;4964607;28;21064;-74
2024/03/08 12:26:15;;;;;;;15.40;9.10;;;10.70;99.90;;;;;;4977254;28;20545;-74
2024/03/08 12:28:44;;;;;;;15.97;9.17;;;10.70;99.90;;;;;;4962249;28;21049;-73
2024/03/08 12:31:12;;;;;;;16.47;11.17;;;10.80;99.90;;;;;;4964877;28;20462;-73
2024/03/08 12:33:50;;;;;;;19.70;11.27;;;10.70;99.90;;;;;;4974564;28;20520;-73
2024/03/08 12:36:17;;;;;;;14.70;9.80;;;10.50;99.90;;;;;;4964969;28;21034;-74
2024/03/08 12:38:49;;;;;;;17.40;10.13;;;10.50;99.90;;;;;;4968076;28;20472;-74
2024/03/08 12:41:17;;;;;;;13.50;7.87;;;10.60;99.90;;;;;;4965348;28;20501;-73
2024/03/08 12:43:48;;;;;;;18.27;9.10;;;10.70;99.90;;;;;;4974982;28;20459;-74
2024/03/08 12:46:14;;;;;;;14.60;9.97;;;10.80;99.90;;;;;;4980874;28;20477;-74
2024/03/08 12:48:40;;;;;;;16.73;9.87;;;10.80;99.90;;;;;;4966397;28;20501;-73